Time;durP1;ratioP1;P1;durP2;ratioP2;P2;SDS_P1;SDS_P2;PMS_P1;PMS_P2;Temp;Humidity;BMP_temperature;BMP_pressure;BME280_temperature;BME280_humidity;BME280_pressure;Samples;Min_cycle;Max_cycle;Signal;HPM_P1;HPM_P2
2022/06/13 00:00:52;;;;;;;;;;;;;;;16.37;54.65;101567.91;5064400;28;19933;-79
2022/06/13 00:03:18;;;;;;;;;;;;;;;16.35;55.06;101572.34;5066840;28;20436;-79
2022/06/13 00:05:43;;;;;;;;;;;;;;;16.30;55.35;101567.25;5062190;28;19943;-79
2022/06/13 00:08:08;;;;;;;;;;;;;;;16.28;55.62;101576.06;5061695;28;19971;-79
2022/06/13 00:10:34;;;;;;;;;;;;;;;16.21;54.59;101574.53;5063715;28;20020;-76
2022/06/13 00:12:59;;;;;;;;;;;;;;;16.24;54.64;101572.69;5062795;28;20543;-76
2022/06/13 00:15:24;;;;;;;;;;;;;;;16.27;54.35;101577.84;5062884;28;20039;-76
2022/06/13 00:17:49;;;;;;;;;;;;;;;16.33;54.58;101579.41;5064379;28;20003;-77
2022/06/13 00:20:15;;;;;;;;;;;;;;;16.29;54.25;101583.00;5059425;28;19970;-76
2022/06/13 00:22:40;;;;;;;;;;;;;;;16.24;54.61;101579.69;5065200;28;19924;-76
2022/06/13 00:25:06;;;;;;;;;;;;;;;16.23;55.05;101583.19;5062906;28;19985;-78
2022/06/13 00:27:32;;;;;;;;;;;;;;;16.22;54.45;101573.66;5066247;28;20351;-79
2022/06/13 00:29:57;;;;;;;;;;;;;;;16.14;54.88;101575.63;5068221;28;20578;-79
2022/06/13 00:32:22;;;;;;;;;;;;;;;15.90;54.42;101570.25;5062895;28;19917;-79
2022/06/13 00:34:48;;;;;;;;;;;;;;;16.17;54.00;101571.16;5065554;28;20406;-79
2022/06/13 00:37:13;;;;;;;;;;;;;;;16.01;54.64;101569.06;5063293;28;19964;-79
2022/06/13 00:39:39;;;;;;;;;;;;;;;16.03;53.82;101551.53;5066850;28;20280;-79
2022/06/13 00:42:04;;;;;;;;;;;;;;;16.09;55.01;101560.06;5058312;28;19932;-79
2022/06/13 00:44:31;;;;;;;;;;;;;;;16.21;54.26;101551.81;5064091;28;19913;-79
2022/06/13 00:46:56;;;;;;;;;;;;;;;16.14;54.42;101546.78;5061739;28;19920;-79
2022/06/13 00:49:25;;;;;;;;;;;;;;;16.22;53.89;101550.06;5062162;28;19927;-79
2022/06/13 00:51:54;;;;;;;;;;;;;;;16.25;53.81;101553.44;5061439;28;20036;-79
2022/06/13 00:54:20;;;;;;;;;;;;;;;16.10;54.97;101547.81;5061227;28;19931;-79
2022/06/13 00:56:47;;;;;;;;;;;;;;;16.11;55.77;101544.28;5059885;28;20009;-78
2022/06/13 00:59:14;;;;;;;;;;;;;;;16.10;55.07;101542.56;5060450;28;19962;-79
2022/06/13 01:01:40;;;;;;;;;;;;;;;16.00;56.24;101533.28;5061953;28;19920;-79
2022/06/13 01:04:06;;;;;;;;;;;;;;;16.01;55.88;101532.38;5058731;28;20398;-79
2022/06/13 01:06:33;;;;;;;;;;;;;;;15.94;55.76;101529.94;5063296;28;20011;-79
2022/06/13 01:09:00;;;;;;;;;;;;;;;15.86;56.26;101529.34;5060980;28;19947;-79
2022/06/13 01:11:26;;;;;;;;;;;;;;;15.85;56.75;101534.59;5063712;28;19958;-79
2022/06/13 01:14:10;;;;;;;;;;;;;;;15.87;56.11;101540.66;5060362;28;20025;-78
2022/06/13 01:16:38;;;;;;;;;;;;;;;15.84;56.06;101533.75;5053216;28;19939;-79
2022/06/13 01:19:07;;;;;;;;;;;;;;;15.84;56.70;101538.97;5063831;28;19929;-79
2022/06/13 01:21:40;;;;;;;;;;;;;;;15.83;56.75;101542.53;5064355;28;19962;-79
2022/06/13 01:24:18;;;;;;;;;;;;;;;15.81;57.08;101546.06;5060582;28;19969;-79
2022/06/13 01:26:43;;;;;;;;;;;;;;;15.84;57.07;101544.22;5065059;28;19912;-79
2022/06/13 01:29:24;;;;;;;;;;;;;;;15.92;56.11;101544.00;5069975;28;20508;-79
2022/06/13 01:32:18;;;;;;;;;;;;;;;15.80;55.94;101540.00;5067470;28;19924;-79
2022/06/13 01:34:43;;;;;;;;;;;;;;;15.90;55.77;101549.28;5045462;28;20598;-78
2022/06/13 01:37:29;;;;;;;;;;;;;;;15.72;56.41;101546.34;5061509;28;19921;-78
2022/06/13 01:40:13;;;;;;;;;;;;;;;15.75;56.67;101541.03;5044496;28;19963;-78
2022/06/13 01:43:05;;;;;;;;;;;;;;;15.80;56.51;101539.13;5072058;28;19973;-78
2022/06/13 01:45:33;;;;;;;;;;;;;;;15.78;56.81;101538.31;5063817;28;20380;-78
2022/06/13 01:47:58;;;;;;;;;;;;;;;15.71;56.00;101531.53;5062807;28;19924;-78
2022/06/13 01:50:27;;;;;;;;;;;;;;;15.73;55.75;101553.28;5068580;28;19917;-78
2022/06/13 01:52:53;;;;;;;;;;;;;;;15.58;56.58;101551.09;5065643;28;19924;-78
2022/06/13 01:55:18;;;;;;;;;;;;;;;15.64;56.38;101551.78;5061878;28;19935;-78
2022/06/13 01:57:50;;;;;;;;;;;;;;;15.64;56.38;101554.41;5060402;28;20354;-78
2022/06/13 02:00:18;;;;;;;;;;;;;;;15.54;56.80;101554.75;5067793;28;20457;-78
2022/06/13 02:02:47;;;;;;;;;;;;;;;15.50;56.53;101556.59;5065672;28;20027;-78
2022/06/13 02:05:15;;;;;;;;;;;;;;;15.51;56.45;101560.91;5067507;28;19920;-79
2022/06/13 02:07:43;;;;;;;;;;;;;;;15.35;57.09;101563.13;5060719;28;19921;-78
2022/06/13 02:10:11;;;;;;;;;;;;;;;15.17;57.55;101566.22;5064752;28;19927;-78
2022/06/13 02:12:38;;;;;;;;;;;;;;;15.50;56.52;101571.44;5062666;28;19936;-78
2022/06/13 02:15:09;;;;;;;;;;;;;;;15.48;56.65;101573.25;5062934;28;20417;-78
2022/06/13 02:17:46;;;;;;;;;;;;;;;15.37;56.75;101577.00;5059367;28;19927;-78
2022/06/13 02:20:19;;;;;;;;;;;;;;;15.50;56.36;101577.53;5066120;28;19931;-78
2022/06/13 02:22:47;;;;;;;;;;;;;;;15.31;56.75;101581.53;5058500;28;19920;-78
2022/06/13 02:25:21;;;;;;;;;;;;;;;15.26;57.18;101586.06;5065655;28;19925;-78
2022/06/13 02:27:51;;;;;;;;;;;;;;;15.10;57.11;101580.38;5062369;28;20398;-78
2022/06/13 02:30:18;;;;;;;;;;;;;;;15.06;57.78;101578.75;5056783;28;20434;-79
2022/06/13 02:32:52;;;;;;;;;;;;;;;15.25;56.73;101584.34;5059502;28;19966;-79
2022/06/13 02:35:22;;;;;;;;;;;;;;;15.35;56.90;101583.19;5062093;28;20323;-78
2022/06/13 02:37:51;;;;;;;;;;;;;;;15.23;56.99;101587.00;5061778;28;19969;-78
2022/06/13 02:40:16;;;;;;;;;;;;;;;14.87;57.76;101591.44;5063762;28;19924;-78
2022/06/13 02:42:46;;;;;;;;;;;;;;;14.86;58.39;101584.50;5062121;28;20410;-78
2022/06/13 02:45:30;;;;;;;;;;;;;;;15.09;57.84;101585.66;5059852;28;19928;-78
2022/06/13 02:48:03;;;;;;;;;;;;;;;15.20;57.58;101583.59;5064056;28;19924;-77
2022/06/13 02:50:41;;;;;;;;;;;;;;;15.25;57.84;101577.34;5060911;28;19925;-76
2022/06/13 02:53:19;;;;;;;;;;;;;;;15.20;57.69;101574.00;5062291;28;19925;-76
2022/06/13 02:55:49;;;;;;;;;;;;;;;15.32;57.39;101583.28;5059215;28;20323;-76
2022/06/13 02:58:30;;;;;;;;;;;;;;;15.33;56.71;101577.16;5061257;28;19968;-76
2022/06/13 03:01:07;;;;;;;;;;;;;;;15.17;57.08;101566.22;5062871;28;19932;-76
2022/06/13 03:03:39;;;;;;;;;;;;;;;15.33;57.02;101562.28;5060851;28;19924;-76
2022/06/13 03:06:04;;;;;;;;;;;;;;;15.17;57.82;101563.63;5066026;28;19931;-76
2022/06/13 03:08:30;;;;;;;;;;;;;;;15.24;57.87;101561.69;5066184;28;19916;-76
2022/06/13 03:10:58;;;;;;;;;;;;;;;15.35;57.22;101559.63;5066961;28;19924;-76
2022/06/13 03:13:30;;;;;;;;;;;;;;;15.21;57.76;101560.03;5064032;28;19943;-76
2022/06/13 03:16:03;;;;;;;;;;;;;;;15.05;58.83;101557.84;5061619;28;20354;-76
2022/06/13 03:18:32;;;;;;;;;;;;;;;15.08;58.61;101556.00;5069537;28;19920;-76
2022/06/13 03:21:00;;;;;;;;;;;;;;;15.13;58.83;101559.34;5064470;28;19920;-76
2022/06/13 03:23:28;;;;;;;;;;;;;;;15.21;58.47;101561.78;5061437;28;19921;-76
2022/06/13 03:25:58;;;;;;;;;;;;;;;15.04;58.77;101562.22;5060985;28;19921;-76
2022/06/13 03:28:27;;;;;;;;;;;;;;;15.14;58.86;101566.31;5060508;28;20414;-79
2022/06/13 03:31:01;;;;;;;;;;;;;;;15.14;58.32;101555.84;5061374;28;19920;-78
2022/06/13 03:33:42;;;;;;;;;;;;;;;15.06;58.73;101557.81;5067066;28;19925;-78
2022/06/13 03:36:23;;;;;;;;;;;;;;;14.94;59.37;101552.91;5062208;28;19979;-78
2022/06/13 03:39:01;;;;;;;;;;;;;;;14.93;59.43;101558.16;5067863;28;20290;-79
2022/06/13 03:41:31;;;;;;;;;;;;;;;14.97;59.25;101560.69;5064908;28;19929;-78
2022/06/13 03:43:59;;;;;;;;;;;;;;;15.06;58.34;101570.03;5065534;28;19928;-79
2022/06/13 03:46:28;;;;;;;;;;;;;;;15.16;57.98;101567.13;5063640;28;19925;-79
2022/06/13 03:48:57;;;;;;;;;;;;;;;15.03;59.38;101562.28;5063000;28;19954;-79
2022/06/13 03:51:25;;;;;;;;;;;;;;;14.99;59.45;101578.94;5058845;28;19920;-82
2022/06/13 03:53:56;;;;;;;;;;;;;;;14.96;58.62;101576.41;5066065;28;19963;-82
2022/06/13 03:56:22;;;;;;;;;;;;;;;15.16;57.03;101581.97;5064282;28;19928;-82
2022/06/13 03:59:07;;;;;;;;;;;;;;;15.10;57.08;101589.97;5067465;28;19927;-77
2022/06/13 04:01:38;;;;;;;;;;;;;;;15.05;57.79;101589.25;5052960;28;19925;-76
2022/06/13 04:04:03;;;;;;;;;;;;;;;15.16;56.44;101581.97;5071010;28;20027;-76
2022/06/13 04:06:38;;;;;;;;;;;;;;;15.17;57.19;101583.69;5069580;28;20477;-76
2022/06/13 04:09:06;;;;;;;;;;;;;;;15.14;56.17;101591.63;5062692;28;20512;-77
2022/06/13 04:11:50;;;;;;;;;;;;;;;15.05;57.06;101597.09;5066403;28;19928;-78
2022/06/13 04:14:22;;;;;;;;;;;;;;;15.10;56.77;101595.22;5060700;28;19921;-79
2022/06/13 04:16:57;;;;;;;;;;;;;;;15.02;57.01;101592.81;5061135;28;19979;-79
2022/06/13 04:19:42;;;;;;;;;;;;;;;14.92;57.65;101595.72;5057684;28;19924;-79
2022/06/13 04:22:18;;;;;;;;;;;;;;;14.80;58.42;101592.50;5066365;28;20018;-82
2022/06/13 04:25:02;;;;;;;;;;;;;;;14.99;57.75;101603.34;5062311;28;19924;-81
2022/06/13 04:27:31;;;;;;;;;;;;;;;14.81;59.38;101603.81;5062295;28;20043;-79
2022/06/13 04:29:56;;;;;;;;;;;;;;;14.98;57.83;101600.78;5063828;28;19917;-78
2022/06/13 04:32:26;;;;;;;;;;;;;;;14.95;58.75;101603.50;5064450;28;20375;-76
2022/06/13 04:34:52;;;;;;;;;;;;;;;14.89;58.71;101598.41;5063175;28;19925;-78
2022/06/13 04:37:20;;;;;;;;;;;;;;;14.83;58.99;101602.00;5060865;28;19966;-79
2022/06/13 04:39:47;;;;;;;;;;;;;;;14.81;59.81;101598.59;5066510;28;20383;-79
2022/06/13 04:42:13;;;;;;;;;;;;;;;14.94;59.35;101596.53;5059499;28;20371;-81
2022/06/13 04:44:40;;;;;;;;;;;;;;;14.98;59.56;101595.56;5058339;28;19931;-81
2022/06/13 04:47:05;;;;;;;;;;;;;;;15.09;59.60;101598.75;5066819;28;19924;-77
2022/06/13 04:49:34;;;;;;;;;;;;;;;15.00;59.59;101594.63;5062552;28;19927;-76
2022/06/13 04:52:01;;;;;;;;;;;;;;;14.89;59.23;101595.78;5071409;28;19917;-76
2022/06/13 04:54:33;;;;;;;;;;;;;;;14.86;59.10;101597.56;5059496;28;19931;-76
2022/06/13 04:56:59;;;;;;;;;;;;;;;14.96;59.25;101608.66;5067189;28;19917;-76
2022/06/13 04:59:25;;;;;;;;;;;;;;;14.96;59.02;101611.28;5071144;28;20367;-76
2022/06/13 05:01:50;;;;;;;;;;;;;;;15.13;58.25;101611.69;5068770;28;19943;-82
2022/06/13 05:04:18;;;;;;;;;;;;;;;15.04;58.96;101619.78;5065142;28;19928;-81
2022/06/13 05:06:46;;;;;;;;;;;;;;;15.10;59.44;101611.78;5065734;28;19963;-82
2022/06/13 05:09:11;;;;;;;;;;;;;;;15.03;58.54;101617.22;5064107;28;20358;-82
2022/06/13 05:11:48;;;;;;;;;;;;;;;15.09;58.66;101620.53;5063478;28;20375;-81
2022/06/13 05:14:18;;;;;;;;;;;;;;;15.18;58.89;101624.69;5062072;28;20462;-78
2022/06/13 05:17:02;;;;;;;;;;;;;;;15.13;59.48;101618.69;5067270;28;19924;-79
2022/06/13 05:19:46;;;;;;;;;;;;;;;15.11;59.82;101629.22;5064991;28;19932;-79
2022/06/13 05:22:24;;;;;;;;;;;;;;;15.03;59.40;101625.94;5063974;28;20006;-79
2022/06/13 05:24:58;;;;;;;;;;;;;;;15.22;59.38;101623.69;5062432;28;19920;-79
2022/06/13 05:27:23;;;;;;;;;;;;;;;15.41;58.17;101619.69;5066663;28;19945;-79
2022/06/13 05:29:48;;;;;;;;;;;;;;;15.41;58.86;101624.91;5071811;28;19920;-82
2022/06/13 05:32:14;;;;;;;;;;;;;;;15.17;59.88;101630.81;5067758;28;19955;-83
2022/06/13 05:34:41;;;;;;;;;;;;;;;15.36;58.28;101627.63;5067148;28;20019;-80
2022/06/13 05:37:07;;;;;;;;;;;;;;;15.46;58.56;101630.00;5065436;28;19931;-82
2022/06/13 05:39:34;;;;;;;;;;;;;;;15.31;59.06;101629.53;5065966;28;19925;-79
2022/06/13 05:41:59;;;;;;;;;;;;;;;15.43;58.63;101631.81;5067023;28;19927;-82
2022/06/13 05:44:24;;;;;;;;;;;;;;;15.42;59.05;101631.88;5070673;28;19924;-82
2022/06/13 05:46:50;;;;;;;;;;;;;;;15.47;59.62;101624.75;5062204;28;19932;-83
2022/06/13 05:49:17;;;;;;;;;;;;;;;15.52;59.24;101630.72;5063813;28;20387;-82
2022/06/13 05:51:42;;;;;;;;;;;;;;;15.46;59.34;101628.25;5067202;28;19963;-81
2022/06/13 05:54:11;;;;;;;;;;;;;;;15.53;59.58;101631.56;5064542;28;20550;-76
2022/06/13 05:56:37;;;;;;;;;;;;;;;15.41;59.04;101630.16;5065308;28;20395;-77
2022/06/13 05:59:03;;;;;;;;;;;;;;;15.43;59.71;101623.97;5063665;28;19942;-77
2022/06/13 06:01:28;;;;;;;;;;;;;;;15.57;59.29;101626.19;5064362;28;20395;-77
2022/06/13 06:03:53;;;;;;;;;;;;;;;15.70;59.02;101622.34;5067661;28;20322;-77
2022/06/13 06:06:20;;;;;;;;;;;;;;;15.72;59.66;101633.63;5062549;28;19924;-77
2022/06/13 06:08:46;;;;;;;;;;;;;;;15.73;59.04;101627.50;5065199;28;19924;-82
2022/06/13 06:11:11;;;;;;;;;;;;;;;15.73;58.60;101630.09;5065404;28;19924;-82
2022/06/13 06:13:37;;;;;;;;;;;;;;;15.63;58.89;101633.88;5066040;28;19947;-79
2022/06/13 06:16:02;;;;;;;;;;;;;;;15.70;58.63;101624.09;5069682;28;20414;-77
2022/06/13 06:18:29;;;;;;;;;;;;;;;15.82;58.36;101635.13;5067272;28;19970;-79
2022/06/13 06:20:55;;;;;;;;;;;;;;;15.85;58.58;101628.94;5068685;28;19916;-79
2022/06/13 06:23:20;;;;;;;;;;;;;;;15.69;58.79;101631.09;5059627;28;20587;-77
2022/06/13 06:25:49;;;;;;;;;;;;;;;15.92;58.21;101635.72;5066301;28;19928;-78
2022/06/13 06:28:22;;;;;;;;;;;;;;;15.99;57.58;101633.78;5063180;28;19959;-78
2022/06/13 06:30:48;;;;;;;;;;;;;;;15.97;57.53;101628.56;5066135;28;19931;-78
2022/06/13 06:33:13;;;;;;;;;;;;;;;15.94;57.27;101634.75;5064649;28;20319;-78
2022/06/13 06:35:40;;;;;;;;;;;;;;;15.98;56.38;101632.91;5071631;28;19921;-82
2022/06/13 06:38:06;;;;;;;;;;;;;;;15.96;56.38;101642.56;5067686;28;19971;-82
2022/06/13 06:40:31;;;;;;;;;;;;;;;15.88;57.66;101637.56;5064277;28;19982;-82
2022/06/13 06:42:57;;;;;;;;;;;;;;;15.98;56.94;101640.78;5065631;28;19973;-82
2022/06/13 06:45:23;;;;;;;;;;;;;;;15.93;58.31;101646.13;5063504;28;19947;-81
2022/06/13 06:47:49;;;;;;;;;;;;;;;15.90;58.24;101640.13;5062831;28;19924;-81
2022/06/13 06:50:16;;;;;;;;;;;;;;;15.95;58.23;101643.50;5063464;28;20445;-82
2022/06/13 06:52:42;;;;;;;;;;;;;;;15.89;57.45;101646.28;5062093;28;19925;-82
2022/06/13 07:00:43;;;;;;;;;;;;;;;15.85;57.09;101670.84;5060620;28;19936;-77
2022/06/13 07:03:08;;;;;;;;;;;;;;;15.76;57.51;101663.25;5063558;28;19977;-77
2022/06/13 07:05:34;;;;;;;;;;;;;;;15.75;57.57;101672.03;5062714;28;19928;-77
2022/06/13 07:07:59;;;;;;;;;;;;;;;15.78;57.16;101669.28;5061136;28;19920;-77
2022/06/13 07:10:24;;;;;;;;;;;;;;;15.67;57.77;101664.34;5067742;28;19951;-77
2022/06/13 07:12:50;;;;;;;;;;;;;;;15.76;57.15;101666.72;5061431;28;19990;-82
2022/06/13 07:15:15;;;;;;;;;;;;;;;15.88;57.09;101671.63;5061629;28;19932;-82
2022/06/13 07:17:41;;;;;;;;;;;;;;;15.76;56.84;101674.59;5060740;28;20292;-82
2022/06/13 07:20:06;;;;;;;;;;;;;;;15.77;56.00;101673.69;5062786;28;19935;-82
2022/06/13 07:22:32;;;;;;;;;;;;;;;15.88;56.48;101673.38;5059695;28;20655;-82
2022/06/13 07:24:57;;;;;;;;;;;;;;;15.80;56.00;101678.00;5058178;28;20486;-82
2022/06/13 07:27:22;;;;;;;;;;;;;;;15.97;56.26;101681.84;5058895;28;19924;-82
2022/06/13 07:29:48;;;;;;;;;;;;;;;15.95;56.03;101686.28;5065018;28;19917;-82
2022/06/13 07:32:22;;;;;;;;;;;;;;;15.93;55.83;101679.34;5057692;28;20094;-82
2022/06/13 07:34:48;;;;;;;;;;;;;;;16.02;56.14;101689.56;5058459;28;19944;-82
2022/06/13 07:38:16;;;;;;;;;;;;;;;15.89;56.37;101685.59;5059266;28;20272;-82
2022/06/13 07:40:02;;;;;;;;;;;;;;;15.97;56.50;101680.97;5063218;28;20309;-81
2022/06/13 07:42:28;;;;;;;;;;;;;;;16.09;56.53;101677.16;5065017;28;20007;-82
2022/06/13 07:44:53;;;;;;;;;;;;;;;16.01;57.28;101687.88;5063217;28;19924;-82
2022/06/13 07:47:21;;;;;;;;;;;;;;;16.09;57.42;101688.50;5060727;28;19939;-82
2022/06/13 07:49:46;;;;;;;;;;;;;;;16.09;55.72;101691.13;5063480;28;19928;-82
2022/06/13 07:52:11;;;;;;;;;;;;;;;16.08;55.45;101681.53;5065215;28;20287;-82
2022/06/13 07:54:37;;;;;;;;;;;;;;;15.93;55.99;101687.19;5065033;28;19920;-82
2022/06/13 07:57:02;;;;;;;;;;;;;;;16.04;56.00;101682.53;5064725;28;21525;-81
2022/06/13 07:59:29;;;;;;;;;;;;;;;16.08;55.44;101685.91;5067415;28;19943;-77
2022/06/13 08:01:56;;;;;;;;;;;;;;;16.08;56.07;101688.53;5058414;28;19924;-77
2022/06/13 08:04:21;;;;;;;;;;;;;;;15.93;56.33;101695.06;5065246;28;20019;-76
2022/06/13 08:06:47;;;;;;;;;;;;;;;16.12;56.41;101693.66;5064498;28;20027;-77
2022/06/13 08:09:12;;;;;;;;;;;;;;;15.94;57.11;101699.41;5061825;28;19936;-82
2022/06/13 08:11:42;;;;;;;;;;;;;;;16.01;56.99;101705.34;5061889;28;19925;-82
2022/06/13 08:14:08;;;;;;;;;;;;;;;15.98;57.63;101708.91;5059019;28;19929;-82
2022/06/13 08:16:36;;;;;;;;;;;;;;;16.00;57.64;101704.47;5059328;28;20510;-82
2022/06/13 08:19:03;;;;;;;;;;;;;;;15.94;58.56;101716.00;5060930;28;19924;-81
2022/06/13 08:21:29;;;;;;;;;;;;;;;16.10;58.17;101712.94;5063107;28;19974;-79
2022/06/13 08:23:54;;;;;;;;;;;;;;;16.16;58.06;101711.00;5064611;28;19916;-79
2022/06/13 08:26:19;;;;;;;;;;;;;;;16.14;58.66;101715.41;5065396;28;20012;-77
2022/06/13 08:28:45;;;;;;;;;;;;;;;16.16;58.39;101708.38;5062948;28;19963;-77
2022/06/13 08:31:12;;;;;;;;;;;;;;;16.20;59.04;101706.50;5068131;28;20021;-79
2022/06/13 08:33:38;;;;;;;;;;;;;;;16.22;59.07;101704.72;5067249;28;19936;-79
2022/06/13 08:36:04;;;;;;;;;;;;;;;16.21;59.13;101708.25;5071028;28;20540;-79
2022/06/13 08:38:29;;;;;;;;;;;;;;;16.23;58.73;101709.03;5071509;28;19916;-79
2022/06/13 08:40:57;;;;;;;;;;;;;;;16.06;59.59;101711.31;5065389;28;19927;-79
2022/06/13 08:43:38;;;;;;;;;;;;;;;16.25;59.58;101707.25;5071026;28;19920;-82
2022/06/13 08:46:24;;;;;;;;;;;;;;;16.31;59.21;101710.53;5068489;28;19924;-82
2022/06/13 08:48:53;;;;;;;;;;;;;;;16.28;59.54;101710.66;5065770;28;20015;-81
2022/06/13 08:51:34;;;;;;;;;;;;;;;16.34;59.35;101710.44;5064610;28;19989;-81
2022/06/13 08:54:00;;;;;;;;;;;;;;;16.43;59.27;101712.78;5062453;28;20197;-81
2022/06/13 08:56:29;;;;;;;;;;;;;;;16.41;57.96;101719.84;5066075;28;20300;-82
2022/06/13 08:58:56;;;;;;;;;;;;;;;16.37;57.68;101714.75;5067161;28;19929;-82
2022/06/13 09:01:37;;;;;;;;;;;;;;;16.51;57.68;101710.81;5066317;28;20373;-82
2022/06/13 09:04:05;;;;;;;;;;;;;;;16.57;57.99;101715.00;5063866;28;19920;-81
2022/06/13 09:06:37;;;;;;;;;;;;;;;16.55;57.07;101722.03;5064696;28;19930;-81
2022/06/13 09:09:09;;;;;;;;;;;;;;;16.43;56.09;101714.59;5062970;28;19927;-82
2022/06/13 09:11:34;;;;;;;;;;;;;;;16.56;56.44;101712.41;5065679;28;20391;-82
2022/06/13 09:14:03;;;;;;;;;;;;;;;16.63;56.70;101722.69;5066106;28;19917;-81
2022/06/13 09:16:32;;;;;;;;;;;;;;;16.61;56.50;101729.72;5063574;28;19924;-82
2022/06/13 09:19:04;;;;;;;;;;;;;;;16.64;55.89;101715.69;5066568;28;19966;-82
2022/06/13 09:21:34;;;;;;;;;;;;;;;16.72;56.54;101729.44;5062572;28;19921;-81
2022/06/13 09:24:13;;;;;;;;;;;;;;;16.82;56.66;101725.63;5061534;28;19951;-81
2022/06/13 09:26:59;;;;;;;;;;;;;;;16.78;55.39;101739.75;5064101;28;19973;-81
2022/06/13 09:29:30;;;;;;;;;;;;;;;16.67;53.56;101737.41;5067914;28;20678;-82
2022/06/13 09:32:09;;;;;;;;;;;;;;;16.53;53.51;101736.97;5067731;28;19928;-82
2022/06/13 09:35:04;;;;;;;;;;;;;;;16.47;52.22;101737.16;5068023;28;19925;-81
2022/06/13 09:37:35;;;;;;;;;;;;;;;16.48;53.34;101741.53;5056294;28;19932;-82
2022/06/13 09:40:01;;;;;;;;;;;;;;;16.64;53.97;101734.88;5071825;28;20010;-82
2022/06/13 09:42:34;;;;;;;;;;;;;;;16.72;52.89;101738.19;5064547;28;20450;-81
2022/06/13 09:45:02;;;;;;;;;;;;;;;16.66;51.96;101742.72;5065741;28;19932;-81
2022/06/13 09:47:34;;;;;;;;;;;;;;;16.74;52.87;101743.38;5064988;28;19908;-82
2022/06/13 09:50:07;;;;;;;;;;;;;;;16.76;52.89;101745.03;5059737;28;19924;-82
2022/06/13 09:52:32;;;;;;;;;;;;;;;16.80;52.81;101738.78;5066872;28;19925;-82
2022/06/13 09:55:07;;;;;;;;;;;;;;;16.87;53.30;101737.72;5066045;28;19920;-82
2022/06/13 09:57:50;;;;;;;;;;;;;;;16.86;52.26;101733.34;5068686;28;20438;-82
2022/06/13 10:00:20;;;;;;;;;;;;;;;16.86;49.45;101724.63;5070060;28;19920;-81
2022/06/13 10:02:48;;;;;;;;;;;;;;;16.91;49.49;101733.19;5064632;28;19916;-78
2022/06/13 10:05:28;;;;;;;;;;;;;;;16.94;49.67;101733.97;5070854;28;19917;-79
2022/06/13 10:08:06;;;;;;;;;;;;;;;16.97;51.35;101738.25;5069508;28;19990;-79
2022/06/13 10:10:32;;;;;;;;;;;;;;;16.96;50.02;101742.66;5070671;28;19916;-81
2022/06/13 10:12:57;;;;;;;;;;;;;;;16.98;51.04;101750.47;5066742;28;19970;-79
2022/06/13 10:15:34;;;;;;;;;;;;;;;16.87;50.55;101745.59;5071575;28;19928;-79
2022/06/13 10:18:18;;;;;;;;;;;;;;;16.89;49.12;101748.16;5066353;28;19927;-79
2022/06/13 10:20:47;;;;;;;;;;;;;;;17.08;49.56;101766.81;5067839;28;19935;-79
2022/06/13 10:23:18;;;;;;;;;;;;;;;17.01;48.72;101747.75;5059630;28;19966;-79
2022/06/13 10:26:03;;;;;;;;;;;;;;;17.04;48.51;101740.66;5067897;28;19926;-79
2022/06/13 10:28:44;;;;;;;;;;;;;;;17.19;48.32;101743.69;5067975;28;19920;-79
2022/06/13 10:31:09;;;;;;;;;;;;;;;17.26;50.37;101746.06;5078636;28;20403;-79
2022/06/13 10:33:41;;;;;;;;;;;;;;;17.25;50.54;101741.72;5066129;28;20016;-79
2022/06/13 10:36:17;;;;;;;;;;;;;;;17.17;48.38;101735.88;5066382;28;19921;-81
2022/06/13 10:38:45;;;;;;;;;;;;;;;17.13;47.41;101743.88;5070961;28;19931;-82
2022/06/13 10:41:10;;;;;;;;;;;;;;;17.13;47.17;101743.88;5067105;28;20299;-82
2022/06/13 10:43:37;;;;;;;;;;;;;;;17.08;47.66;101756.31;5074740;28;19932;-81
2022/06/13 10:46:02;;;;;;;;;;;;;;;16.89;47.46;101756.88;5069859;28;19916;-82
2022/06/13 10:48:34;;;;;;;;;;;;;;;16.89;48.08;101742.91;5070868;28;19927;-81
2022/06/13 10:51:01;;;;;;;;;;;;;;;16.94;48.39;101752.34;5065838;28;19939;-81
2022/06/13 10:53:30;;;;;;;;;;;;;;;16.89;48.29;101751.63;5067365;28;19916;-82
2022/06/13 10:55:57;;;;;;;;;;;;;;;16.89;48.73;101754.25;5071065;28;19931;-82
2022/06/13 10:58:41;;;;;;;;;;;;;;;16.98;48.45;101753.09;5066120;28;20570;-82
2022/06/13 11:01:07;;;;;;;;;;;;;;;17.15;49.13;101752.53;5061964;28;20418;-82
2022/06/13 11:03:33;;;;;;;;;;;;;;;17.19;49.20;101749.78;5063962;28;19933;-82
2022/06/13 11:06:04;;;;;;;;;;;;;;;17.14;48.10;101749.09;5059263;28;20071;-82
2022/06/13 11:08:30;;;;;;;;;;;;;;;17.12;47.90;101750.88;5069191;28;19966;-82
2022/06/13 11:10:57;;;;;;;;;;;;;;;17.19;48.23;101741.06;5066354;28;19928;-82
2022/06/13 11:13:28;;;;;;;;;;;;;;;17.28;48.27;101738.13;5068231;28;19927;-82
2022/06/13 11:24:15;;;;;;;;;;;;;;;17.27;47.01;101739.88;5066790;28;19926;-81
2022/06/13 11:29:26;;;;;;;;;;;;;;;17.25;45.28;101748.72;5066041;28;19935;-82
2022/06/13 11:31:52;;;;;;;;;;;;;;;17.30;45.17;101742.41;5070798;28;19920;-81
2022/06/13 11:34:27;;;;;;;;;;;;;;;17.23;44.08;101742.69;5064980;28;20028;-82
2022/06/13 11:37:02;;;;;;;;;;;;;;;17.27;44.64;101741.66;5067067;28;19928;-83
2022/06/13 11:39:32;;;;;;;;;;;;;;;17.29;43.32;101748.59;5068220;28;19924;-82
2022/06/13 11:41:58;;;;;;;;;;;;;;;17.28;43.84;101752.13;5062539;28;19917;-82
2022/06/13 11:44:24;;;;;;;;;;;;;;;17.40;44.23;101748.22;5068293;28;19913;-82
2022/06/13 11:46:55;;;;;;;;;;;;;;;17.37;45.23;101736.06;5063566;28;20102;-77
2022/06/13 11:49:21;;;;;;;;;;;;;;;17.45;44.77;101741.91;5058208;28;19927;-77
2022/06/13 11:52:01;;;;;;;;;;;;;;;17.46;44.36;101748.88;5060081;28;20012;-77
2022/06/13 11:54:29;;;;;;;;;;;;;;;17.45;44.94;101748.91;5063260;28;19977;-78
2022/06/13 11:57:13;;;;;;;;;;;;;;;17.38;46.03;101744.78;5059884;28;19994;-78
2022/06/13 11:59:49;;;;;;;;;;;;;;;17.38;45.78;101748.25;5056090;28;20672;-78
2022/06/13 12:02:18;;;;;;;;;;;;;;;17.41;43.46;101742.91;5065829;28;19920;-79
2022/06/13 12:04:47;;;;;;;;;;;;;;;17.35;41.93;101747.53;5062004;28;20011;-79
2022/06/13 12:07:21;;;;;;;;;;;;;;;17.51;43.29;101753.97;5061336;28;19928;-79
2022/06/13 12:09:51;;;;;;;;;;;;;;;17.46;43.24;101751.50;5059627;28;20011;-79
2022/06/13 12:12:16;;;;;;;;;;;;;;;17.47;42.99;101739.22;5062374;28;19924;-79
2022/06/13 12:14:42;;;;;;;;;;;;;;;17.58;43.87;101742.34;5063119;28;19921;-79
2022/06/13 12:17:10;;;;;;;;;;;;;;;17.49;42.86;101737.41;5063205;28;19932;-78
2022/06/13 12:19:48;;;;;;;;;;;;;;;17.50;42.11;101749.63;5062692;28;20023;-78
2022/06/13 12:22:20;;;;;;;;;;;;;;;17.55;42.91;101742.44;5066031;28;20035;-78
2022/06/13 12:24:45;;;;;;;;;;;;;;;17.65;43.00;101745.66;5062948;28;19924;-78
2022/06/13 12:27:23;;;;;;;;;;;;;;;17.57;44.71;101753.75;5057292;28;19921;-78
2022/06/13 12:29:57;;;;;;;;;;;;;;;17.55;44.47;101751.19;5064463;28;19962;-79
2022/06/13 12:32:22;;;;;;;;;;;;;;;17.69;44.31;101750.72;5066556;28;20418;-79
2022/06/13 12:34:54;;;;;;;;;;;;;;;17.68;44.14;101753.44;5059774;28;19925;-79
2022/06/13 12:37:22;;;;;;;;;;;;;;;17.61;43.97;101755.41;5064843;28;19928;-79
2022/06/13 12:40:06;;;;;;;;;;;;;;;17.65;43.95;101741.22;5064515;28;20414;-79
2022/06/13 12:42:42;;;;;;;;;;;;;;;17.75;43.35;101755.78;5064718;28;19931;-79
2022/06/13 12:45:08;;;;;;;;;;;;;;;17.68;40.80;101749.00;5065867;28;19950;-79
2022/06/13 12:47:48;;;;;;;;;;;;;;;17.70;40.42;101747.22;5063568;28;19920;-79
2022/06/13 12:50:28;;;;;;;;;;;;;;;17.79;40.64;101746.88;5062328;28;20303;-79
2022/06/13 12:52:56;;;;;;;;;;;;;;;17.81;41.28;101742.41;5067159;28;20351;-79
2022/06/13 12:55:40;;;;;;;;;;;;;;;17.86;44.03;101744.88;5064473;28;20342;-79
2022/06/13 12:58:09;;;;;;;;;;;;;;;17.92;41.32;101747.28;5066244;28;19927;-79
2022/06/13 13:00:45;;;;;;;;;;;;;;;17.85;37.21;101737.91;5063977;28;19921;-79
2022/06/13 13:03:19;;;;;;;;;;;;;;;17.82;37.08;101738.91;5059075;28;19924;-79
2022/06/13 13:05:54;;;;;;;;;;;;;;;17.89;36.34;101740.38;5063695;28;20719;-79